sensor_id;sensor_type;location;lat;lon;timestamp;P1;durP1;ratioP1;P2;durP2;ratioP2
53959;SDS011;39866;48.638;-2.020;2023-08-01T00:01:00;3.22;;;1.20;;
53959;SDS011;39866;48.638;-2.020;2023-08-01T00:03:25;4.00;;;1.40;;
53959;SDS011;39866;48.638;-2.020;2023-08-01T00:05:51;4.38;;;1.40;;
53959;SDS011;39866;48.638;-2.020;2023-08-01T00:08:16;4.13;;;1.58;;
53959;SDS011;39866;48.638;-2.020;2023-08-01T00:10:41;4.55;;;1.63;;
53959;SDS011;39866;48.638;-2.020;2023-08-01T00:13:07;6.05;;;1.88;;
53959;SDS011;39866;48.638;-2.020;2023-08-01T00:15:33;3.95;;;1.38;;
53959;SDS011;39866;48.638;-2.020;2023-08-01T00:17:59;5.63;;;1.67;;
53959;SDS011;39866;48.638;-2.020;2023-08-01T00:20:25;3.97;;;1.52;;
53959;SDS011;39866;48.638;-2.020;2023-08-01T00:22:50;5.35;;;1.58;;
53959;SDS011;39866;48.638;-2.020;2023-08-01T00:25:16;3.53;;;1.50;;
53959;SDS011;39866;48.638;-2.020;2023-08-01T00:27:42;3.60;;;1.30;;
53959;SDS011;39866;48.638;-2.020;2023-08-01T00:30:07;4.97;;;1.40;;
53959;SDS011;39866;48.638;-2.020;2023-08-01T00:32:34;3.78;;;1.40;;
53959;SDS011;39866;48.638;-2.020;2023-08-01T00:34:59;5.18;;;1.63;;
53959;SDS011;39866;48.638;-2.020;2023-08-01T00:37:25;4.80;;;1.65;;
53959;SDS011;39866;48.638;-2.020;2023-08-01T00:39:50;3.90;;;1.60;;
53959;SDS011;39866;48.638;-2.020;2023-08-01T00:42:15;5.53;;;1.73;;
53959;SDS011;39866;48.638;-2.020;2023-08-01T00:44:41;4.47;;;1.90;;
53959;SDS011;39866;48.638;-2.020;2023-08-01T00:47:06;6.32;;;2.03;;
53959;SDS011;39866;48.638;-2.020;2023-08-01T00:49:32;5.95;;;2.03;;
53959;SDS011;39866;48.638;-2.020;2023-08-01T00:51:57;6.75;;;2.13;;
53959;SDS011;39866;48.638;-2.020;2023-08-01T00:54:23;6.32;;;2.50;;
53959;SDS011;39866;48.638;-2.020;2023-08-01T00:56:49;6.18;;;2.13;;
53959;SDS011;39866;48.638;-2.020;2023-08-01T00:59:15;4.75;;;2.15;;
53959;SDS011;39866;48.638;-2.020;2023-08-01T01:01:41;6.28;;;2.47;;
53959;SDS011;39866;48.638;-2.020;2023-08-01T01:04:06;8.05;;;2.60;;
53959;SDS011;39866;48.638;-2.020;2023-08-01T01:06:34;6.03;;;2.20;;
53959;SDS011;39866;48.638;-2.020;2023-08-01T01:09:15;6.97;;;2.70;;
53959;SDS011;39866;48.638;-2.020;2023-08-01T01:11:44;7.80;;;2.58;;
53959;SDS011;39866;48.638;-2.020;2023-08-01T01:14:10;6.40;;;2.55;;
53959;SDS011;39866;48.638;-2.020;2023-08-01T01:16:36;7.78;;;2.40;;
53959;SDS011;39866;48.638;-2.020;2023-08-01T01:19:01;5.20;;;2.70;;
53959;SDS011;39866;48.638;-2.020;2023-08-01T01:21:30;5.78;;;2.42;;
53959;SDS011;39866;48.638;-2.020;2023-08-01T01:23:57;6.75;;;2.90;;
53959;SDS011;39866;48.638;-2.020;2023-08-01T01:26:23;7.53;;;2.58;;
53959;SDS011;39866;48.638;-2.020;2023-08-01T01:28:48;5.82;;;2.40;;
53959;SDS011;39866;48.638;-2.020;2023-08-01T01:31:15;6.15;;;2.72;;
53959;SDS011;39866;48.638;-2.020;2023-08-01T01:33:41;6.95;;;2.72;;
53959;SDS011;39866;48.638;-2.020;2023-08-01T01:36:07;5.40;;;2.50;;
53959;SDS011;39866;48.638;-2.020;2023-08-01T01:38:32;7.72;;;2.92;;
53959;SDS011;39866;48.638;-2.020;2023-08-01T01:40:58;7.65;;;3.10;;
53959;SDS011;39866;48.638;-2.020;2023-08-01T01:43:23;8.10;;;2.90;;
53959;SDS011;39866;48.638;-2.020;2023-08-01T01:45:49;9.25;;;3.38;;
53959;SDS011;39866;48.638;-2.020;2023-08-01T01:48:14;6.85;;;2.90;;
53959;SDS011;39866;48.638;-2.020;2023-08-01T01:50:39;8.13;;;3.00;;
53959;SDS011;39866;48.638;-2.020;2023-08-01T01:53:05;9.23;;;2.95;;
53959;SDS011;39866;48.638;-2.020;2023-08-01T01:55:30;9.13;;;3.30;;
53959;SDS011;39866;48.638;-2.020;2023-08-01T01:57:55;8.75;;;3.63;;
53959;SDS011;39866;48.638;-2.020;2023-08-01T02:00:20;9.43;;;3.00;;
53959;SDS011;39866;48.638;-2.020;2023-08-01T02:02:46;6.78;;;3.30;;
53959;SDS011;39866;48.638;-2.020;2023-08-01T02:05:11;10.07;;;3.22;;
53959;SDS011;39866;48.638;-2.020;2023-08-01T02:07:36;8.43;;;3.53;;
53959;SDS011;39866;48.638;-2.020;2023-08-01T02:10:02;10.00;;;3.10;;
53959;SDS011;39866;48.638;-2.020;2023-08-01T02:12:28;9.30;;;3.20;;
53959;SDS011;39866;48.638;-2.020;2023-08-01T02:14:56;10.73;;;3.80;;
53959;SDS011;39866;48.638;-2.020;2023-08-01T02:17:22;10.02;;;3.35;;
53959;SDS011;39866;48.638;-2.020;2023-08-01T02:19:47;10.18;;;3.40;;
53959;SDS011;39866;48.638;-2.020;2023-08-01T02:22:13;11.32;;;3.55;;
53959;SDS011;39866;48.638;-2.020;2023-08-01T02:24:38;11.95;;;4.00;;
53959;SDS011;39866;48.638;-2.020;2023-08-01T02:27:03;12.02;;;4.00;;
53959;SDS011;39866;48.638;-2.020;2023-08-01T02:29:29;10.82;;;3.45;;
53959;SDS011;39866;48.638;-2.020;2023-08-01T02:31:54;9.40;;;3.38;;
53959;SDS011;39866;48.638;-2.020;2023-08-01T02:34:21;11.07;;;3.70;;
53959;SDS011;39866;48.638;-2.020;2023-08-01T02:36:46;11.70;;;3.97;;
53959;SDS011;39866;48.638;-2.020;2023-08-01T02:39:12;9.45;;;3.85;;
53959;SDS011;39866;48.638;-2.020;2023-08-01T02:41:37;10.85;;;4.00;;
53959;SDS011;39866;48.638;-2.020;2023-08-01T02:44:02;11.57;;;4.20;;
53959;SDS011;39866;48.638;-2.020;2023-08-01T02:46:28;14.77;;;4.78;;
53959;SDS011;39866;48.638;-2.020;2023-08-01T02:48:54;9.70;;;3.65;;
53959;SDS011;39866;48.638;-2.020;2023-08-01T02:51:20;13.95;;;4.38;;
53959;SDS011;39866;48.638;-2.020;2023-08-01T02:53:45;11.15;;;4.32;;
53959;SDS011;39866;48.638;-2.020;2023-08-01T02:56:10;12.57;;;4.15;;
53959;SDS011;39866;48.638;-2.020;2023-08-01T02:58:36;11.77;;;3.85;;
53959;SDS011;39866;48.638;-2.020;2023-08-01T03:01:01;11.88;;;4.22;;
53959;SDS011;39866;48.638;-2.020;2023-08-01T03:03:32;11.00;;;4.40;;
53959;SDS011;39866;48.638;-2.020;2023-08-01T03:05:57;13.90;;;4.30;;
53959;SDS011;39866;48.638;-2.020;2023-08-01T03:08:23;10.60;;;4.15;;
53959;SDS011;39866;48.638;-2.020;2023-08-01T03:10:49;12.80;;;4.07;;
53959;SDS011;39866;48.638;-2.020;2023-08-01T03:13:14;13.07;;;4.25;;
53959;SDS011;39866;48.638;-2.020;2023-08-01T03:15:39;12.07;;;4.38;;
53959;SDS011;39866;48.638;-2.020;2023-08-01T03:18:05;12.68;;;4.20;;
53959;SDS011;39866;48.638;-2.020;2023-08-01T03:20:30;13.85;;;4.35;;
53959;SDS011;39866;48.638;-2.020;2023-08-01T03:22:55;10.23;;;3.97;;
53959;SDS011;39866;48.638;-2.020;2023-08-01T03:25:21;13.90;;;4.30;;
53959;SDS011;39866;48.638;-2.020;2023-08-01T03:27:46;12.88;;;4.30;;
53959;SDS011;39866;48.638;-2.020;2023-08-01T03:30:12;12.68;;;4.47;;
53959;SDS011;39866;48.638;-2.020;2023-08-01T03:32:37;14.55;;;3.97;;
53959;SDS011;39866;48.638;-2.020;2023-08-01T03:35:03;13.55;;;4.95;;
53959;SDS011;39866;48.638;-2.020;2023-08-01T03:37:29;14.23;;;4.43;;
53959;SDS011;39866;48.638;-2.020;2023-08-01T03:39:55;13.13;;;4.43;;
53959;SDS011;39866;48.638;-2.020;2023-08-01T03:42:20;11.85;;;4.20;;
53959;SDS011;39866;48.638;-2.020;2023-08-01T03:44:46;12.27;;;4.35;;
53959;SDS011;39866;48.638;-2.020;2023-08-01T03:47:11;12.32;;;4.07;;
53959;SDS011;39866;48.638;-2.020;2023-08-01T03:49:36;12.23;;;4.40;;
53959;SDS011;39866;48.638;-2.020;2023-08-01T03:52:03;11.32;;;4.47;;
53959;SDS011;39866;48.638;-2.020;2023-08-01T03:54:29;13.45;;;4.63;;
53959;SDS011;39866;48.638;-2.020;2023-08-01T03:56:55;14.18;;;4.65;;
53959;SDS011;39866;48.638;-2.020;2023-08-01T03:59:20;11.10;;;4.43;;
53959;SDS011;39866;48.638;-2.020;2023-08-01T04:01:45;13.18;;;4.93;;
53959;SDS011;39866;48.638;-2.020;2023-08-01T04:04:11;13.05;;;4.63;;
53959;SDS011;39866;48.638;-2.020;2023-08-01T04:06:36;11.93;;;4.60;;
53959;SDS011;39866;48.638;-2.020;2023-08-01T04:09:02;11.68;;;4.53;;
53959;SDS011;39866;48.638;-2.020;2023-08-01T04:11:27;13.98;;;4.63;;
53959;SDS011;39866;48.638;-2.020;2023-08-01T04:13:54;13.68;;;4.45;;
53959;SDS011;39866;48.638;-2.020;2023-08-01T04:16:20;11.93;;;4.32;;
53959;SDS011;39866;48.638;-2.020;2023-08-01T04:18:46;14.73;;;4.45;;
53959;SDS011;39866;48.638;-2.020;2023-08-01T04:21:12;10.80;;;4.20;;
53959;SDS011;39866;48.638;-2.020;2023-08-01T04:23:39;10.18;;;4.53;;
53959;SDS011;39866;48.638;-2.020;2023-08-01T04:26:05;10.40;;;4.30;;
53959;SDS011;39866;48.638;-2.020;2023-08-01T04:28:31;13.15;;;4.30;;
53959;SDS011;39866;48.638;-2.020;2023-08-01T04:30:57;9.35;;;4.55;;
53959;SDS011;39866;48.638;-2.020;2023-08-01T04:33:22;11.15;;;4.15;;
53959;SDS011;39866;48.638;-2.020;2023-08-01T04:35:48;9.88;;;4.30;;
53959;SDS011;39866;48.638;-2.020;2023-08-01T04:38:14;11.57;;;4.07;;
53959;SDS011;39866;48.638;-2.020;2023-08-01T04:40:40;11.93;;;4.72;;
53959;SDS011;39866;48.638;-2.020;2023-08-01T04:43:05;11.80;;;4.68;;
53959;SDS011;39866;48.638;-2.020;2023-08-01T04:45:31;12.05;;;4.93;;
53959;SDS011;39866;48.638;-2.020;2023-08-01T04:47:56;11.50;;;4.57;;
53959;SDS011;39866;48.638;-2.020;2023-08-01T04:50:21;10.90;;;4.32;;
53959;SDS011;39866;48.638;-2.020;2023-08-01T04:52:47;11.25;;;4.00;;
53959;SDS011;39866;48.638;-2.020;2023-08-01T04:55:12;7.88;;;4.18;;
53959;SDS011;39866;48.638;-2.020;2023-08-01T04:57:37;10.35;;;4.45;;
53959;SDS011;39866;48.638;-2.020;2023-08-01T05:00:03;14.80;;;4.18;;
53959;SDS011;39866;48.638;-2.020;2023-08-01T05:02:29;10.02;;;4.35;;
53959;SDS011;39866;48.638;-2.020;2023-08-01T05:04:55;12.98;;;4.30;;
53959;SDS011;39866;48.638;-2.020;2023-08-01T05:07:20;11.27;;;4.50;;
53959;SDS011;39866;48.638;-2.020;2023-08-01T05:09:46;8.88;;;4.15;;
53959;SDS011;39866;48.638;-2.020;2023-08-01T05:12:11;10.18;;;4.40;;
53959;SDS011;39866;48.638;-2.020;2023-08-01T05:14:36;10.90;;;4.32;;
53959;SDS011;39866;48.638;-2.020;2023-08-01T05:17:02;10.75;;;4.30;;
53959;SDS011;39866;48.638;-2.020;2023-08-01T05:19:27;10.95;;;4.13;;
53959;SDS011;39866;48.638;-2.020;2023-08-01T05:21:53;9.52;;;4.18;;
53959;SDS011;39866;48.638;-2.020;2023-08-01T05:24:18;10.93;;;4.60;;
53959;SDS011;39866;48.638;-2.020;2023-08-01T05:26:43;9.90;;;4.32;;
53959;SDS011;39866;48.638;-2.020;2023-08-01T05:29:09;8.20;;;4.00;;
53959;SDS011;39866;48.638;-2.020;2023-08-01T05:31:34;9.60;;;3.92;;
53959;SDS011;39866;48.638;-2.020;2023-08-01T05:33:59;10.32;;;4.72;;
53959;SDS011;39866;48.638;-2.020;2023-08-01T05:36:25;7.15;;;3.53;;
53959;SDS011;39866;48.638;-2.020;2023-08-01T05:38:50;8.25;;;4.22;;
53959;SDS011;39866;48.638;-2.020;2023-08-01T05:41:15;10.75;;;4.40;;
53959;SDS011;39866;48.638;-2.020;2023-08-01T05:43:41;9.82;;;4.30;;
53959;SDS011;39866;48.638;-2.020;2023-08-01T05:46:06;13.20;;;4.57;;
53959;SDS011;39866;48.638;-2.020;2023-08-01T05:48:31;8.73;;;4.10;;
53959;SDS011;39866;48.638;-2.020;2023-08-01T05:50:57;10.07;;;4.65;;
53959;SDS011;39866;48.638;-2.020;2023-08-01T05:53:23;9.77;;;4.70;;
53959;SDS011;39866;48.638;-2.020;2023-08-01T05:55:48;9.27;;;4.18;;
53959;SDS011;39866;48.638;-2.020;2023-08-01T05:58:14;9.93;;;4.50;;
53959;SDS011;39866;48.638;-2.020;2023-08-01T06:00:40;8.30;;;4.22;;
53959;SDS011;39866;48.638;-2.020;2023-08-01T06:03:06;8.75;;;4.50;;
53959;SDS011;39866;48.638;-2.020;2023-08-01T06:05:31;12.30;;;4.32;;
53959;SDS011;39866;48.638;-2.020;2023-08-01T06:07:57;10.43;;;4.20;;
53959;SDS011;39866;48.638;-2.020;2023-08-01T06:10:22;10.68;;;4.70;;
53959;SDS011;39866;48.638;-2.020;2023-08-01T06:12:47;9.68;;;4.43;;
53959;SDS011;39866;48.638;-2.020;2023-08-01T06:15:12;11.27;;;4.03;;
53959;SDS011;39866;48.638;-2.020;2023-08-01T06:17:38;10.32;;;4.32;;
53959;SDS011;39866;48.638;-2.020;2023-08-01T06:20:03;8.90;;;4.43;;
53959;SDS011;39866;48.638;-2.020;2023-08-01T06:22:30;9.57;;;4.75;;
53959;SDS011;39866;48.638;-2.020;2023-08-01T06:24:55;8.23;;;4.50;;
53959;SDS011;39866;48.638;-2.020;2023-08-01T06:27:21;8.95;;;4.38;;
53959;SDS011;39866;48.638;-2.020;2023-08-01T06:29:46;8.90;;;4.35;;
53959;SDS011;39866;48.638;-2.020;2023-08-01T06:32:12;7.65;;;4.35;;
53959;SDS011;39866;48.638;-2.020;2023-08-01T06:34:37;10.45;;;4.30;;
53959;SDS011;39866;48.638;-2.020;2023-08-01T06:37:03;9.75;;;4.18;;
53959;SDS011;39866;48.638;-2.020;2023-08-01T06:39:29;8.60;;;4.47;;
53959;SDS011;39866;48.638;-2.020;2023-08-01T06:41:54;11.80;;;4.78;;
53959;SDS011;39866;48.638;-2.020;2023-08-01T06:44:20;9.73;;;4.47;;
53959;SDS011;39866;48.638;-2.020;2023-08-01T06:46:45;8.48;;;4.38;;
53959;SDS011;39866;48.638;-2.020;2023-08-01T06:49:11;9.50;;;4.35;;
53959;SDS011;39866;48.638;-2.020;2023-08-01T06:51:36;8.45;;;4.10;;
53959;SDS011;39866;48.638;-2.020;2023-08-01T06:54:01;8.98;;;4.13;;
53959;SDS011;39866;48.638;-2.020;2023-08-01T06:56:27;9.85;;;4.40;;
53959;SDS011;39866;48.638;-2.020;2023-08-01T06:58:52;10.98;;;4.30;;
53959;SDS011;39866;48.638;-2.020;2023-08-01T07:01:17;7.88;;;4.22;;
53959;SDS011;39866;48.638;-2.020;2023-08-01T07:03:43;10.18;;;4.50;;
53959;SDS011;39866;48.638;-2.020;2023-08-01T07:06:08;10.02;;;4.05;;
53959;SDS011;39866;48.638;-2.020;2023-08-01T07:08:35;9.25;;;4.18;;
53959;SDS011;39866;48.638;-2.020;2023-08-01T07:11:00;9.75;;;4.43;;
53959;SDS011;39866;48.638;-2.020;2023-08-01T07:13:25;9.02;;;4.70;;
53959;SDS011;39866;48.638;-2.020;2023-08-01T07:15:51;9.90;;;4.05;;
53959;SDS011;39866;48.638;-2.020;2023-08-01T07:18:17;11.75;;;4.40;;
53959;SDS011;39866;48.638;-2.020;2023-08-01T07:20:43;8.55;;;4.70;;
53959;SDS011;39866;48.638;-2.020;2023-08-01T07:23:09;10.02;;;4.28;;
53959;SDS011;39866;48.638;-2.020;2023-08-01T07:25:34;8.38;;;4.25;;
53959;SDS011;39866;48.638;-2.020;2023-08-01T07:27:59;11.05;;;4.35;;
53959;SDS011;39866;48.638;-2.020;2023-08-01T07:30:25;9.65;;;4.43;;
53959;SDS011;39866;48.638;-2.020;2023-08-01T07:32:50;8.80;;;4.20;;
53959;SDS011;39866;48.638;-2.020;2023-08-01T07:35:15;8.70;;;4.10;;
53959;SDS011;39866;48.638;-2.020;2023-08-01T07:37:41;10.45;;;4.57;;
53959;SDS011;39866;48.638;-2.020;2023-08-01T07:40:06;11.10;;;4.70;;
53959;SDS011;39866;48.638;-2.020;2023-08-01T07:42:32;8.55;;;4.60;;
53959;SDS011;39866;48.638;-2.020;2023-08-01T07:44:58;8.48;;;4.20;;
53959;SDS011;39866;48.638;-2.020;2023-08-01T07:47:23;12.15;;;5.00;;
53959;SDS011;39866;48.638;-2.020;2023-08-01T07:49:49;11.40;;;4.50;;
53959;SDS011;39866;48.638;-2.020;2023-08-01T07:52:15;11.45;;;4.80;;
53959;SDS011;39866;48.638;-2.020;2023-08-01T07:54:40;11.73;;;5.10;;
53959;SDS011;39866;48.638;-2.020;2023-08-01T07:57:06;10.55;;;4.43;;
53959;SDS011;39866;48.638;-2.020;2023-08-01T07:59:31;10.70;;;4.57;;
53959;SDS011;39866;48.638;-2.020;2023-08-01T08:01:56;9.13;;;4.40;;
53959;SDS011;39866;48.638;-2.020;2023-08-01T08:04:22;9.07;;;3.95;;
53959;SDS011;39866;48.638;-2.020;2023-08-01T08:06:47;10.98;;;4.63;;
53959;SDS011;39866;48.638;-2.020;2023-08-01T08:09:12;7.90;;;4.30;;
53959;SDS011;39866;48.638;-2.020;2023-08-01T08:11:38;9.50;;;4.45;;
53959;SDS011;39866;48.638;-2.020;2023-08-01T08:14:03;10.38;;;4.32;;
53959;SDS011;39866;48.638;-2.020;2023-08-01T08:16:29;10.73;;;4.40;;
53959;SDS011;39866;48.638;-2.020;2023-08-01T08:18:55;9.65;;;4.95;;
53959;SDS011;39866;48.638;-2.020;2023-08-01T08:21:20;9.63;;;4.55;;
53959;SDS011;39866;48.638;-2.020;2023-08-01T08:23:45;11.27;;;4.50;;
53959;SDS011;39866;48.638;-2.020;2023-08-01T08:26:11;8.98;;;4.30;;
53959;SDS011;39866;48.638;-2.020;2023-08-01T08:28:36;10.20;;;4.22;;
53959;SDS011;39866;48.638;-2.020;2023-08-01T08:31:02;11.60;;;5.00;;
53959;SDS011;39866;48.638;-2.020;2023-08-01T08:33:28;8.55;;;4.43;;
53959;SDS011;39866;48.638;-2.020;2023-08-01T08:35:54;8.77;;;4.70;;
53959;SDS011;39866;48.638;-2.020;2023-08-01T08:38:19;10.48;;;5.07;;
53959;SDS011;39866;48.638;-2.020;2023-08-01T08:40:52;10.25;;;4.95;;
53959;SDS011;39866;48.638;-2.020;2023-08-01T08:43:35;11.48;;;5.22;;
53959;SDS011;39866;48.638;-2.020;2023-08-01T08:46:02;9.10;;;5.07;;
53959;SDS011;39866;48.638;-2.020;2023-08-01T08:48:29;8.65;;;4.68;;
53959;SDS011;39866;48.638;-2.020;2023-08-01T08:50:58;11.15;;;4.90;;
53959;SDS011;39866;48.638;-2.020;2023-08-01T08:53:25;10.18;;;5.32;;
53959;SDS011;39866;48.638;-2.020;2023-08-01T08:55:51;9.90;;;5.15;;
53959;SDS011;39866;48.638;-2.020;2023-08-01T08:58:16;13.35;;;5.43;;
53959;SDS011;39866;48.638;-2.020;2023-08-01T09:00:43;8.73;;;4.40;;
53959;SDS011;39866;48.638;-2.020;2023-08-01T09:03:09;14.57;;;5.53;;
53959;SDS011;39866;48.638;-2.020;2023-08-01T09:05:37;11.15;;;4.82;;
53959;SDS011;39866;48.638;-2.020;2023-08-01T09:08:13;11.50;;;4.88;;
53959;SDS011;39866;48.638;-2.020;2023-08-01T09:10:42;9.88;;;4.95;;
53959;SDS011;39866;48.638;-2.020;2023-08-01T09:13:08;10.38;;;5.10;;
53959;SDS011;39866;48.638;-2.020;2023-08-01T09:15:34;14.43;;;5.15;;
53959;SDS011;39866;48.638;-2.020;2023-08-01T09:18:05;9.20;;;5.10;;
53959;SDS011;39866;48.638;-2.020;2023-08-01T09:20:39;11.00;;;4.90;;
53959;SDS011;39866;48.638;-2.020;2023-08-01T09:23:08;10.52;;;4.80;;
53959;SDS011;39866;48.638;-2.020;2023-08-01T09:25:34;7.93;;;4.60;;
53959;SDS011;39866;48.638;-2.020;2023-08-01T09:28:00;11.02;;;5.50;;
53959;SDS011;39866;48.638;-2.020;2023-08-01T09:30:26;11.02;;;5.28;;
53959;SDS011;39866;48.638;-2.020;2023-08-01T09:32:53;13.88;;;4.88;;
53959;SDS011;39866;48.638;-2.020;2023-08-01T09:35:19;12.73;;;4.60;;
53959;SDS011;39866;48.638;-2.020;2023-08-01T09:37:46;11.80;;;5.60;;
53959;SDS011;39866;48.638;-2.020;2023-08-01T09:40:11;10.40;;;4.75;;
53959;SDS011;39866;48.638;-2.020;2023-08-01T09:42:41;10.40;;;4.70;;
53959;SDS011;39866;48.638;-2.020;2023-08-01T09:45:12;8.40;;;4.80;;
53959;SDS011;39866;48.638;-2.020;2023-08-01T09:47:38;16.38;;;5.10;;
53959;SDS011;39866;48.638;-2.020;2023-08-01T09:50:04;8.68;;;4.82;;
53959;SDS011;39866;48.638;-2.020;2023-08-01T09:52:30;9.85;;;4.70;;
53959;SDS011;39866;48.638;-2.020;2023-08-01T09:54:55;10.00;;;4.38;;
53959;SDS011;39866;48.638;-2.020;2023-08-01T09:57:21;10.40;;;4.32;;
53959;SDS011;39866;48.638;-2.020;2023-08-01T09:59:47;8.50;;;4.93;;
53959;SDS011;39866;48.638;-2.020;2023-08-01T10:02:14;10.45;;;4.68;;
53959;SDS011;39866;48.638;-2.020;2023-08-01T10:04:43;6.70;;;3.90;;
53959;SDS011;39866;48.638;-2.020;2023-08-01T10:07:11;7.95;;;4.28;;
53959;SDS011;39866;48.638;-2.020;2023-08-01T10:09:37;8.60;;;4.25;;
53959;SDS011;39866;48.638;-2.020;2023-08-01T10:12:02;8.00;;;4.80;;
53959;SDS011;39866;48.638;-2.020;2023-08-01T10:14:30;7.32;;;4.28;;
53959;SDS011;39866;48.638;-2.020;2023-08-01T10:16:57;9.05;;;4.60;;
53959;SDS011;39866;48.638;-2.020;2023-08-01T10:19:23;10.00;;;4.88;;
53959;SDS011;39866;48.638;-2.020;2023-08-01T10:21:50;11.38;;;4.70;;
53959;SDS011;39866;48.638;-2.020;2023-08-01T10:24:16;9.07;;;5.03;;
53959;SDS011;39866;48.638;-2.020;2023-08-01T10:26:46;9.48;;;4.30;;
53959;SDS011;39866;48.638;-2.020;2023-08-01T10:29:11;9.18;;;4.40;;
53959;SDS011;39866;48.638;-2.020;2023-08-01T10:31:37;9.82;;;4.38;;
53959;SDS011;39866;48.638;-2.020;2023-08-01T10:34:03;10.77;;;4.95;;
53959;SDS011;39866;48.638;-2.020;2023-08-01T10:36:37;8.95;;;4.97;;
53959;SDS011;39866;48.638;-2.020;2023-08-01T10:39:02;7.80;;;4.63;;
53959;SDS011;39866;48.638;-2.020;2023-08-01T10:41:29;10.65;;;4.85;;
53959;SDS011;39866;48.638;-2.020;2023-08-01T10:44:09;10.45;;;4.90;;
53959;SDS011;39866;48.638;-2.020;2023-08-01T10:46:45;8.63;;;4.82;;
53959;SDS011;39866;48.638;-2.020;2023-08-01T10:49:32;11.95;;;5.15;;
53959;SDS011;39866;48.638;-2.020;2023-08-01T10:52:03;10.15;;;4.82;;
53959;SDS011;39866;48.638;-2.020;2023-08-01T10:54:40;9.15;;;4.97;;
53959;SDS011;39866;48.638;-2.020;2023-08-01T10:57:05;10.38;;;5.32;;
53959;SDS011;39866;48.638;-2.020;2023-08-01T10:59:31;8.75;;;4.57;;
53959;SDS011;39866;48.638;-2.020;2023-08-01T11:01:58;8.00;;;4.43;;
53959;SDS011;39866;48.638;-2.020;2023-08-01T11:04:24;8.35;;;4.60;;
53959;SDS011;39866;48.638;-2.020;2023-08-01T11:06:50;10.77;;;5.00;;
53959;SDS011;39866;48.638;-2.020;2023-08-01T11:09:19;10.73;;;4.72;;
53959;SDS011;39866;48.638;-2.020;2023-08-01T11:11:58;11.13;;;4.90;;
53959;SDS011;39866;48.638;-2.020;2023-08-01T11:14:26;9.88;;;4.95;;
53959;SDS011;39866;48.638;-2.020;2023-08-01T11:16:56;9.25;;;5.07;;
53959;SDS011;39866;48.638;-2.020;2023-08-01T11:21:54;7.03;;;4.45;;
53959;SDS011;39866;48.638;-2.020;2023-08-01T11:24:25;6.78;;;4.25;;
53959;SDS011;39866;48.638;-2.020;2023-08-01T11:26:51;8.32;;;4.35;;
53959;SDS011;39866;48.638;-2.020;2023-08-01T11:29:18;9.90;;;4.45;;
53959;SDS011;39866;48.638;-2.020;2023-08-01T11:31:57;8.90;;;5.40;;
53959;SDS011;39866;48.638;-2.020;2023-08-01T11:34:24;9.77;;;4.63;;
53959;SDS011;39866;48.638;-2.020;2023-08-01T11:36:50;10.20;;;4.55;;
53959;SDS011;39866;48.638;-2.020;2023-08-01T11:39:16;7.32;;;4.80;;
53959;SDS011;39866;48.638;-2.020;2023-08-01T11:41:43;7.75;;;4.25;;
53959;SDS011;39866;48.638;-2.020;2023-08-01T11:44:09;6.88;;;3.85;;
53959;SDS011;39866;48.638;-2.020;2023-08-01T11:46:36;8.13;;;3.67;;
53959;SDS011;39866;48.638;-2.020;2023-08-01T11:49:03;8.30;;;3.80;;
53959;SDS011;39866;48.638;-2.020;2023-08-01T11:51:29;5.43;;;3.45;;
53959;SDS011;39866;48.638;-2.020;2023-08-01T11:54:02;6.50;;;3.20;;
53959;SDS011;39866;48.638;-2.020;2023-08-01T11:56:28;8.65;;;3.30;;
53959;SDS011;39866;48.638;-2.020;2023-08-01T11:58:55;5.05;;;3.17;;
53959;SDS011;39866;48.638;-2.020;2023-08-01T12:01:20;5.20;;;2.83;;
53959;SDS011;39866;48.638;-2.020;2023-08-01T12:03:47;5.05;;;2.92;;
53959;SDS011;39866;48.638;-2.020;2023-08-01T12:06:19;4.93;;;2.60;;
53959;SDS011;39866;48.638;-2.020;2023-08-01T12:08:48;4.10;;;2.83;;
53959;SDS011;39866;48.638;-2.020;2023-08-01T12:11:18;5.53;;;2.80;;
53959;SDS011;39866;48.638;-2.020;2023-08-01T12:13:44;6.55;;;2.80;;
53959;SDS011;39866;48.638;-2.020;2023-08-01T12:16:09;5.20;;;2.83;;
53959;SDS011;39866;48.638;-2.020;2023-08-01T12:18:35;6.13;;;3.05;;
53959;SDS011;39866;48.638;-2.020;2023-08-01T12:21:02;7.53;;;3.65;;
53959;SDS011;39866;48.638;-2.020;2023-08-01T12:23:30;5.03;;;2.90;;
53959;SDS011;39866;48.638;-2.020;2023-08-01T12:25:55;6.30;;;2.95;;
53959;SDS011;39866;48.638;-2.020;2023-08-01T12:28:21;5.35;;;2.60;;
53959;SDS011;39866;48.638;-2.020;2023-08-01T12:30:46;4.07;;;2.95;;
53959;SDS011;39866;48.638;-2.020;2023-08-01T12:33:11;7.93;;;3.10;;
53959;SDS011;39866;48.638;-2.020;2023-08-01T12:35:40;5.68;;;3.20;;
53959;SDS011;39866;48.638;-2.020;2023-08-01T12:38:07;6.60;;;3.85;;
53959;SDS011;39866;48.638;-2.020;2023-08-01T12:40:32;5.53;;;3.38;;
53959;SDS011;39866;48.638;-2.020;2023-08-01T12:42:58;8.00;;;3.70;;
53959;SDS011;39866;48.638;-2.020;2023-08-01T12:45:23;6.03;;;4.00;;
53959;SDS011;39866;48.638;-2.020;2023-08-01T12:47:49;8.55;;;3.83;;
53959;SDS011;39866;48.638;-2.020;2023-08-01T12:50:14;6.88;;;3.70;;
53959;SDS011;39866;48.638;-2.020;2023-08-01T12:52:40;9.02;;;3.50;;
53959;SDS011;39866;48.638;-2.020;2023-08-01T12:55:05;6.45;;;3.80;;
53959;SDS011;39866;48.638;-2.020;2023-08-01T12:57:31;6.55;;;3.80;;
53959;SDS011;39866;48.638;-2.020;2023-08-01T12:59:56;8.13;;;3.50;;
53959;SDS011;39866;48.638;-2.020;2023-08-01T13:02:22;6.63;;;3.50;;
53959;SDS011;39866;48.638;-2.020;2023-08-01T13:04:47;7.35;;;3.78;;
53959;SDS011;39866;48.638;-2.020;2023-08-01T13:07:12;5.82;;;3.40;;
53959;SDS011;39866;48.638;-2.020;2023-08-01T13:09:38;7.15;;;3.50;;
53959;SDS011;39866;48.638;-2.020;2023-08-01T13:12:04;6.47;;;3.20;;
53959;SDS011;39866;48.638;-2.020;2023-08-01T13:14:31;6.30;;;3.55;;
53959;SDS011;39866;48.638;-2.020;2023-08-01T13:16:56;6.60;;;3.35;;
53959;SDS011;39866;48.638;-2.020;2023-08-01T13:19:23;6.57;;;3.67;;
53959;SDS011;39866;48.638;-2.020;2023-08-01T13:21:48;7.85;;;3.80;;
53959;SDS011;39866;48.638;-2.020;2023-08-01T13:24:13;5.45;;;3.50;;
53959;SDS011;39866;48.638;-2.020;2023-08-01T13:26:39;7.05;;;3.88;;
53959;SDS011;39866;48.638;-2.020;2023-08-01T13:29:04;7.45;;;3.95;;
53959;SDS011;39866;48.638;-2.020;2023-08-01T13:31:29;6.40;;;3.58;;
53959;SDS011;39866;48.638;-2.020;2023-08-01T13:33:55;6.97;;;3.78;;
53959;SDS011;39866;48.638;-2.020;2023-08-01T13:36:20;6.85;;;4.07;;
53959;SDS011;39866;48.638;-2.020;2023-08-01T13:38:46;6.40;;;3.90;;
53959;SDS011;39866;48.638;-2.020;2023-08-01T13:41:11;8.23;;;4.13;;
53959;SDS011;39866;48.638;-2.020;2023-08-01T13:43:37;8.10;;;3.85;;
53959;SDS011;39866;48.638;-2.020;2023-08-01T13:46:15;10.30;;;4.57;;
53959;SDS011;39866;48.638;-2.020;2023-08-01T13:48:45;7.72;;;4.07;;
53959;SDS011;39866;48.638;-2.020;2023-08-01T13:51:11;7.10;;;4.53;;
53959;SDS011;39866;48.638;-2.020;2023-08-01T13:53:38;6.50;;;3.42;;
53959;SDS011;39866;48.638;-2.020;2023-08-01T13:56:09;6.78;;;3.90;;
53959;SDS011;39866;48.638;-2.020;2023-08-01T13:58:37;9.93;;;4.03;;
53959;SDS011;39866;48.638;-2.020;2023-08-01T14:01:07;6.55;;;4.15;;
53959;SDS011;39866;48.638;-2.020;2023-08-01T14:03:35;7.13;;;4.03;;
53959;SDS011;39866;48.638;-2.020;2023-08-01T14:06:08;6.93;;;3.70;;
53959;SDS011;39866;48.638;-2.020;2023-08-01T14:08:35;6.22;;;3.80;;
53959;SDS011;39866;48.638;-2.020;2023-08-01T14:11:04;5.55;;;3.60;;
53959;SDS011;39866;48.638;-2.020;2023-08-01T14:13:31;6.25;;;3.70;;
53959;SDS011;39866;48.638;-2.020;2023-08-01T14:15:57;7.00;;;3.45;;
53959;SDS011;39866;48.638;-2.020;2023-08-01T14:18:22;6.25;;;3.88;;
53959;SDS011;39866;48.638;-2.020;2023-08-01T14:20:48;5.03;;;3.40;;
53959;SDS011;39866;48.638;-2.020;2023-08-01T14:23:14;5.32;;;3.58;;
53959;SDS011;39866;48.638;-2.020;2023-08-01T14:25:39;6.38;;;3.70;;